Wetterdaten: Dienstag, 17.09.2013
Datum Zeit Temperatur Luftfeuchte Luftdruck Regen Wind Richtung Richtung Taupunkt Windchill Windben
17.09.2013 00:00 6,8 C 95 % 1007,0 hPa 0,0 l/m 7,2 km/h (2 Bft) O-SO 112 6,1 C 4,8 C 6,4 km/h (2 Bft)
17.09.2013 00:05 6,8 C 95 % 1007,0 hPa 0,0 l/m 6,8 km/h (2 Bft) S-SW 202 6,1 C 5,4 C 17,5 km/h (3 Bft)
17.09.2013 00:10 6,7 C 95 % 1007,0 hPa 0,0 l/m 8,5 km/h (2 Bft) SW 225 6,0 C 3,4 C 12,4 km/h (3 Bft)
17.09.2013 00:15 6,4 C 95 % 1007,0 hPa 0,0 l/m 11,7 km/h (2 Bft) S-SW 202 5,7 C 0,3 C 24,8 km/h (4 Bft)
17.09.2013 00:20 6,4 C 95 % 1007,2 hPa 0,7 l/m 11,6 km/h (2 Bft) S-SO 157 5,7 C 0,2 C 14,0 km/h (3 Bft)
17.09.2013 00:25 6,2 C 95 % 1007,2 hPa 0,0 l/m 12,4 km/h (3 Bft) SO 135 5,5 C -0,6 C 10,1 km/h (2 Bft)
17.09.2013 00:30 6,1 C 95 % 1007,2 hPa 0,0 l/m 11,1 km/h (2 Bft) W-NW 292 5,4 C 0,3 C 14,5 km/h (3 Bft)
17.09.2013 00:35 6,1 C 95 % 1007,2 hPa 0,7 l/m 8,9 km/h (2 Bft) S-SO 157 5,4 C 2,2 C 5,3 km/h (1 Bft)
17.09.2013 00:40 6,1 C 95 % 1007,6 hPa 0,0 l/m 7,6 km/h (2 Bft) O 90 5,4 C 3,6 C 6,8 km/h (2 Bft)
17.09.2013 00:45 6,0 C 95 % 1007,6 hPa 0,0 l/m 8,0 km/h (2 Bft) S 180 5,3 C 3,2 C 12,7 km/h (3 Bft)
17.09.2013 00:50 6,0 C 95 % 1007,6 hPa 0,0 l/m 7,9 km/h (2 Bft) S-SW 202 5,3 C 3,1 C 8,0 km/h (2 Bft)
17.09.2013 00:55 5,9 C 96 % 1007,6 hPa 0,7 l/m 6,8 km/h (2 Bft) S 180 5,3 C 4,4 C 7,4 km/h (2 Bft)
17.09.2013 01:00 5,9 C 96 % 1007,8 hPa 0,7 l/m 5,8 km/h (2 Bft) S 180 5,3 C 4,9 C 4,7 km/h (1 Bft)
17.09.2013 01:05 5,9 C 96 % 1007,8 hPa 0,0 l/m 5,6 km/h (1 Bft) SW 225 5,3 C 5,1 C 8,4 km/h (2 Bft)
17.09.2013 01:10 5,9 C 96 % 1007,8 hPa 0,0 l/m 6,1 km/h (2 Bft) SO 135 5,3 C 4,8 C 8,7 km/h (2 Bft)
17.09.2013 01:15 6,0 C 95 % 1007,8 hPa 0,7 l/m 6,4 km/h (2 Bft) S 180 5,3 C 4,8 C 6,9 km/h (2 Bft)
17.09.2013 01:20 6,0 C 95 % 1008,3 hPa 0,7 l/m 7,1 km/h (2 Bft) O-SO 112 5,3 C 4,1 C 13,4 km/h (3 Bft)
17.09.2013 01:25 5,9 C 96 % 1008,3 hPa 0,0 l/m 8,0 km/h (2 Bft) SO 135 5,3 C 3,0 C 15,6 km/h (3 Bft)
17.09.2013 01:30 5,8 C 96 % 1008,3 hPa 0,0 l/m 8,2 km/h (2 Bft) S 180 5,2 C 2,7 C 8,0 km/h (2 Bft)
17.09.2013 01:35 5,7 C 96 % 1008,3 hPa 0,0 l/m 7,9 km/h (2 Bft) W 270 5,1 C 2,8 C 6,4 km/h (2 Bft)
17.09.2013 01:40 5,6 C 96 % 1008,2 hPa 0,0 l/m 7,4 km/h (2 Bft) SO 135 5,0 C 3,3 C 5,3 km/h (1 Bft)
17.09.2013 01:45 5,4 C 96 % 1008,2 hPa 0,0 l/m 7,2 km/h (2 Bft) S 180 4,8 C 3,4 C 8,4 km/h (2 Bft)
17.09.2013 01:50 5,3 C 96 % 1008,2 hPa 0,0 l/m 6,0 km/h (2 Bft) S-SW 202 4,7 C 4,3 C 3,7 km/h (1 Bft)
17.09.2013 01:55 5,2 C 96 % 1008,2 hPa 0,0 l/m 5,1 km/h (1 Bft) S-SW 202 4,6 C 4,4 C 9,2 km/h (2 Bft)
17.09.2013 02:00 5,1 C 96 % 1008,2 hPa 0,7 l/m 5,5 km/h (1 Bft) S 180 4,5 C 4,2 C 7,6 km/h (2 Bft)
17.09.2013 02:05 5,1 C 96 % 1008,2 hPa 0,0 l/m 5,1 km/h (1 Bft) S-SO 157 4,5 C 4,2 C 8,0 km/h (2 Bft)
17.09.2013 02:10 5,0 C 96 % 1008,2 hPa 0,0 l/m 4,7 km/h (1 Bft) SO 135 4,4 C 4,3 C 10,1 km/h (2 Bft)
17.09.2013 02:15 5,0 C 96 % 1008,2 hPa 0,0 l/m 4,0 km/h (1 Bft) S 180 4,4 C 4,6 C 4,3 km/h (1 Bft)
17.09.2013 02:20 5,0 C 96 % 1007,8 hPa 0,0 l/m 4,0 km/h (1 Bft) S-SO 157 4,4 C 4,6 C 11,3 km/h (2 Bft)
17.09.2013 02:25 5,0 C 96 % 1007,8 hPa 0,0 l/m 4,5 km/h (1 Bft) S 180 4,4 C 4,4 C 2,9 km/h (1 Bft)
17.09.2013 02:30 5,0 C 96 % 1007,8 hPa 0,0 l/m 4,8 km/h (1 Bft) SO 135 4,4 C 4,3 C 9,5 km/h (2 Bft)
17.09.2013 02:35 5,0 C 96 % 1007,8 hPa 0,0 l/m 4,3 km/h (1 Bft) S 180 4,4 C 4,4 C 4,7 km/h (1 Bft)
17.09.2013 02:40 5,0 C 96 % 1007,7 hPa 0,0 l/m 3,7 km/h (1 Bft) S-SO 157 4,4 C 4,8 C 2,7 km/h (1 Bft)
17.09.2013 02:45 5,0 C 96 % 1007,7 hPa 0,0 l/m 3,5 km/h (1 Bft) O-SO 112 4,4 C 4,8 C 4,8 km/h (1 Bft)
17.09.2013 02:50 5,0 C 96 % 1007,7 hPa 0,0 l/m 4,0 km/h (1 Bft) S-SO 157 4,4 C 4,6 C 2,9 km/h (1 Bft)
17.09.2013 02:55 5,0 C 96 % 1007,7 hPa 0,0 l/m 4,3 km/h (1 Bft) S 180 4,4 C 4,4 C 6,4 km/h (2 Bft)
17.09.2013 03:00 5,1 C 96 % 1008,1 hPa 0,0 l/m 4,3 km/h (1 Bft) O 90 4,5 C 4,4 C 6,0 km/h (2 Bft)
17.09.2013 03:05 5,1 C 96 % 1008,1 hPa 0,0 l/m 4,8 km/h (1 Bft) W-SW 247 4,5 C 4,3 C 5,6 km/h (1 Bft)
17.09.2013 03:10 5,1 C 96 % 1008,1 hPa 0,0 l/m 4,3 km/h (1 Bft) S 180 4,5 C 4,4 C 6,9 km/h (2 Bft)
17.09.2013 03:15 5,0 C 96 % 1008,1 hPa 0,7 l/m 4,7 km/h (1 Bft) SO 135 4,4 C 4,3 C 6,4 km/h (2 Bft)
17.09.2013 03:20 5,0 C 96 % 1008,2 hPa 0,0 l/m 4,8 km/h (1 Bft) SO 135 4,4 C 4,3 C 4,7 km/h (1 Bft)
17.09.2013 03:25 5,0 C 96 % 1008,2 hPa 0,0 l/m 4,8 km/h (1 Bft) SW 225 4,4 C 4,3 C 4,2 km/h (1 Bft)
17.09.2013 03:30 4,9 C 96 % 1008,2 hPa 0,0 l/m 4,3 km/h (1 Bft) NO 45 4,3 C 4,4 C 5,1 km/h (1 Bft)
17.09.2013 03:35 5,0 C 96 % 1008,2 hPa 0,0 l/m 4,3 km/h (1 Bft) S 180 4,4 C 4,4 C 5,6 km/h (1 Bft)
17.09.2013 03:40 5,0 C 96 % 1008,6 hPa 0,0 l/m 5,0 km/h (1 Bft) S 180 4,4 C 4,2 C 5,1 km/h (1 Bft)
17.09.2013 03:45 4,9 C 96 % 1008,6 hPa 0,0 l/m 4,5 km/h (1 Bft) S-SO 157 4,3 C 4,4 C 3,5 km/h (1 Bft)
17.09.2013 03:50 4,9 C 97 % 1008,6 hPa 0,7 l/m 4,5 km/h (1 Bft) S 180 4,5 C 4,4 C 5,8 km/h (2 Bft)
17.09.2013 03:55 4,8 C 96 % 1008,6 hPa 0,0 l/m 4,7 km/h (1 Bft) S 180 4,2 C 4,2 C 6,0 km/h (2 Bft)
17.09.2013 04:00 4,7 C 96 % 1008,8 hPa 0,7 l/m 6,6 km/h (2 Bft) S 180 4,1 C 3,2 C 6,6 km/h (2 Bft)
17.09.2013 04:05 4,5 C 97 % 1008,8 hPa 0,0 l/m 7,2 km/h (2 Bft) O-SO 112 4,1 C 2,3 C 17,4 km/h (3 Bft)
17.09.2013 04:10 4,4 C 96 % 1008,8 hPa 0,0 l/m 6,4 km/h (2 Bft) S 180 3,8 C 3,1 C 16,6 km/h (3 Bft)
17.09.2013 04:15 4,2 C 96 % 1008,8 hPa 0,7 l/m 6,4 km/h (2 Bft) S 180 3,6 C 2,8 C 5,6 km/h (1 Bft)
17.09.2013 04:20 4,2 C 96 % 1008,6 hPa 0,0 l/m 5,3 km/h (1 Bft) S-SW 202 3,6 C 3,1 C 5,0 km/h (1 Bft)
17.09.2013 04:25 4,2 C 96 % 1008,6 hPa 0,7 l/m 5,0 km/h (1 Bft) S 180 3,6 C 3,2 C 4,5 km/h (1 Bft)
17.09.2013 04:30 4,2 C 96 % 1008,6 hPa 0,0 l/m 5,1 km/h (1 Bft) S 180 3,6 C 3,1 C 9,5 km/h (2 Bft)
17.09.2013 04:35 4,1 C 96 % 1008,6 hPa 0,0 l/m 5,5 km/h (1 Bft) S 180 3,5 C 2,9 C 3,9 km/h (1 Bft)
17.09.2013 04:40 4,0 C 96 % 1008,7 hPa 0,0 l/m 6,1 km/h (2 Bft) S 180 3,4 C 2,7 C 5,5 km/h (1 Bft)
17.09.2013 04:45 4,0 C 96 % 1008,7 hPa 0,0 l/m 6,1 km/h (2 Bft) S-SO 157 3,4 C 2,5 C 10,5 km/h (2 Bft)
17.09.2013 04:50 3,9 C 97 % 1008,7 hPa 0,0 l/m 7,1 km/h (2 Bft) O 90 3,5 C 1,5 C 8,9 km/h (2 Bft)
17.09.2013 04:55 3,9 C 97 % 1008,7 hPa 0,7 l/m 6,4 km/h (2 Bft) O-SO 112 3,5 C 2,4 C 6,1 km/h (2 Bft)
17.09.2013 05:00 3,8 C 97 % 1008,6 hPa 0,0 l/m 6,1 km/h (2 Bft) S 180 3,4 C 2,4 C 10,0 km/h (2 Bft)
17.09.2013 05:05 3,9 C 97 % 1008,6 hPa 0,0 l/m 6,9 km/h (2 Bft) S 180 3,5 C 1,6 C 4,5 km/h (1 Bft)
17.09.2013 05:10 3,9 C 97 % 1008,6 hPa 0,0 l/m 6,9 km/h (2 Bft) SW 225 3,5 C 1,6 C 6,1 km/h (2 Bft)
17.09.2013 05:15 3,9 C 97 % 1008,6 hPa 0,0 l/m 6,0 km/h (2 Bft) SO 135 3,5 C 2,4 C 4,5 km/h (1 Bft)
17.09.2013 05:20 3,9 C 97 % 1008,8 hPa 0,0 l/m 6,0 km/h (2 Bft) S-SW 202 3,5 C 2,4 C 4,7 km/h (1 Bft)
17.09.2013 05:25 3,9 C 97 % 1008,8 hPa 0,7 l/m 6,3 km/h (2 Bft) S 180 3,5 C 2,3 C 8,7 km/h (2 Bft)
17.09.2013 05:30 3,8 C 97 % 1008,8 hPa 0,0 l/m 6,0 km/h (2 Bft) S-SW 202 3,4 C 2,4 C 6,4 km/h (2 Bft)
17.09.2013 05:35 3,8 C 97 % 1008,8 hPa 0,0 l/m 5,1 km/h (1 Bft) O-NO 67 3,4 C 2,6 C 4,5 km/h (1 Bft)
17.09.2013 05:40 3,8 C 97 % 1008,9 hPa 0,0 l/m 3,9 km/h (1 Bft) O 90 3,4 C 3,2 C 6,4 km/h (2 Bft)
17.09.2013 05:45 3,9 C 97 % 1008,9 hPa 0,0 l/m 3,2 km/h (1 Bft) O 90 3,5 C 3,6 C 6,0 km/h (2 Bft)
17.09.2013 05:50 3,9 C 97 % 1008,9 hPa 0,0 l/m 2,4 km/h (1 Bft) O 90 3,5 C 3,9 C 0,0 km/h (0 Bft)
17.09.2013 05:55 3,9 C 97 % 1008,9 hPa 0,0 l/m 1,1 km/h (1 Bft) O 90 3,5 C 3,9 C 4,3 km/h (1 Bft)
17.09.2013 06:00 3,9 C 97 % 1008,9 hPa 0,0 l/m 0,8 km/h (0 Bft) W 270 3,5 C 3,9 C 0,0 km/h (0 Bft)
17.09.2013 06:05 4,0 C 97 % 1008,9 hPa 0,0 l/m 2,4 km/h (1 Bft) SO 135 3,6 C 3,9 C 3,5 km/h (1 Bft)
17.09.2013 06:10 4,0 C 97 % 1008,9 hPa 0,0 l/m 4,3 km/h (1 Bft) S 180 3,6 C 3,2 C 9,2 km/h (2 Bft)
17.09.2013 06:15 4,0 C 97 % 1008,9 hPa 0,0 l/m 6,0 km/h (2 Bft) S-SO 157 3,6 C 2,7 C 10,8 km/h (2 Bft)
17.09.2013 06:20 4,0 C 97 % 1009,1 hPa 0,0 l/m 7,7 km/h (2 Bft) S 180 3,6 C 0,7 C 8,2 km/h (2 Bft)
17.09.2013 06:25 4,0 C 97 % 1009,1 hPa 0,0 l/m 7,9 km/h (2 Bft) O-SO 112 3,6 C 0,7 C 6,1 km/h (2 Bft)
17.09.2013 06:30 4,0 C 97 % 1009,1 hPa 0,0 l/m 6,1 km/h (2 Bft) O-SO 112 3,6 C 2,7 C 6,9 km/h (2 Bft)
17.09.2013 06:35 4,1 C 97 % 1009,1 hPa 0,0 l/m 4,7 km/h (1 Bft) S-SW 202 3,7 C 3,2 C 6,6 km/h (2 Bft)
17.09.2013 06:40 4,1 C 97 % 1009,3 hPa 0,0 l/m 4,8 km/h (1 Bft) S-SO 157 3,7 C 3,1 C 7,2 km/h (2 Bft)
17.09.2013 06:45 4,0 C 97 % 1009,3 hPa 0,7 l/m 4,8 km/h (1 Bft) S-SW 202 3,6 C 3,1 C 5,5 km/h (1 Bft)
17.09.2013 06:50 4,0 C 97 % 1009,3 hPa 0,0 l/m 4,5 km/h (1 Bft) S 180 3,6 C 3,3 C 5,1 km/h (1 Bft)
17.09.2013 06:55 4,0 C 97 % 1009,3 hPa 0,7 l/m 3,7 km/h (1 Bft) S 180 3,6 C 3,7 C 2,6 km/h (1 Bft)
17.09.2013 07:00 4,0 C 97 % 1009,2 hPa 0,0 l/m 2,4 km/h (1 Bft) S-SO 157 3,6 C 4,1 C 1,8 km/h (1 Bft)
17.09.2013 07:05 4,1 C 97 % 1009,2 hPa 0,0 l/m 2,3 km/h (1 Bft) S-SW 202 3,7 C 4,1 C 3,4 km/h (1 Bft)
17.09.2013 07:10 4,1 C 97 % 1009,2 hPa 0,0 l/m 2,3 km/h (1 Bft) O-SO 112 3,7 C 4,1 C 4,7 km/h (1 Bft)
17.09.2013 07:15 4,1 C 97 % 1009,2 hPa 0,0 l/m 1,4 km/h (1 Bft) S 180 3,7 C 4,1 C 2,9 km/h (1 Bft)
17.09.2013 07:20 4,1 C 97 % 1009,4 hPa 0,0 l/m 2,1 km/h (1 Bft) S 180 3,7 C 4,1 C 5,5 km/h (1 Bft)
17.09.2013 07:25 4,0 C 97 % 1009,4 hPa 0,0 l/m 3,4 km/h (1 Bft) SO 135 3,6 C 3,8 C 5,8 km/h (2 Bft)
17.09.2013 07:30 4,0 C 97 % 1009,4 hPa 0,7 l/m 4,8 km/h (1 Bft) O 90 3,6 C 3,1 C 11,7 km/h (2 Bft)
17.09.2013 07:35 4,0 C 97 % 1009,4 hPa 0,0 l/m 5,6 km/h (1 Bft) SO 135 3,6 C 2,8 C 3,1 km/h (1 Bft)
17.09.2013 07:40 4,0 C 97 % 1009,4 hPa 0,0 l/m 5,1 km/h (1 Bft) S-SO 157 3,6 C 3,0 C 10,5 km/h (2 Bft)
17.09.2013 07:45 3,9 C 97 % 1009,4 hPa 0,0 l/m 5,5 km/h (1 Bft) SO 135 3,5 C 2,8 C 11,9 km/h (2 Bft)
17.09.2013 07:50 4,0 C 97 % 1009,4 hPa 0,0 l/m 6,0 km/h (2 Bft) NO 45 3,6 C 2,6 C 3,9 km/h (1 Bft)
17.09.2013 07:55 3,9 C 97 % 1009,4 hPa 0,0 l/m 5,5 km/h (1 Bft) SO 135 3,5 C 2,6 C 5,8 km/h (2 Bft)
17.09.2013 08:00 3,8 C 97 % 1009,6 hPa 0,0 l/m 4,7 km/h (1 Bft) S-SO 157 3,4 C 2,8 C 3,2 km/h (1 Bft)
17.09.2013 08:05 3,6 C 97 % 1009,6 hPa 0,0 l/m 4,5 km/h (1 Bft) SO 135 3,2 C 2,6 C 3,2 km/h (1 Bft)
17.09.2013 08:10 3,6 C 97 % 1009,6 hPa 0,0 l/m 4,0 km/h (1 Bft) O-SO 112 3,2 C 2,9 C 10,0 km/h (2 Bft)
17.09.2013 08:15 3,5 C 97 % 1009,6 hPa 0,0 l/m 3,7 km/h (1 Bft) S-SO 157 3,1 C 3,1 C 8,0 km/h (2 Bft)
17.09.2013 08:20 3,6 C 97 % 1009,8 hPa 0,0 l/m 4,3 km/h (1 Bft) SO 135 3,2 C 2,9 C 9,0 km/h (2 Bft)
17.09.2013 08:25 4,3 C 97 % 1009,8 hPa 0,0 l/m 4,7 km/h (1 Bft) S 180 3,9 C 3,3 C 6,3 km/h (2 Bft)
17.09.2013 08:30 4,4 C 97 % 1009,8 hPa 0,0 l/m 5,3 km/h (1 Bft) W-SW 247 4,0 C 3,3 C 10,5 km/h (2 Bft)
17.09.2013 08:35 4,4 C 97 % 1009,8 hPa 0,7 l/m 6,1 km/h (2 Bft) S 180 4,0 C 3,2 C 12,4 km/h (3 Bft)
17.09.2013 08:40 4,5 C 97 % 1009,9 hPa 0,0 l/m 7,2 km/h (2 Bft) S 180 4,1 C 2,3 C 14,8 km/h (3 Bft)
17.09.2013 08:45 4,6 C 97 % 1009,9 hPa 0,0 l/m 8,2 km/h (2 Bft) S-SO 157 4,2 C 1,4 C 8,4 km/h (2 Bft)
17.09.2013 08:50 4,4 C 97 % 1009,9 hPa 0,0 l/m 8,0 km/h (2 Bft) O-SO 112 4,0 C 1,3 C 13,8 km/h (3 Bft)
17.09.2013 08:55 4,2 C 97 % 1009,9 hPa 0,0 l/m 8,5 km/h (2 Bft) S 180 3,8 C 0,2 C 10,5 km/h (2 Bft)
17.09.2013 09:00 4,1 C 97 % 1010,4 hPa 0,0 l/m 7,4 km/h (2 Bft) S-SW 202 3,7 C 1,4 C 10,1 km/h (2 Bft)
17.09.2013 09:05 4,2 C 97 % 1010,4 hPa 0,0 l/m 6,0 km/h (2 Bft) S 180 3,8 C 2,7 C 6,6 km/h (2 Bft)
17.09.2013 09:10 4,4 C 97 % 1010,4 hPa 0,0 l/m 5,5 km/h (1 Bft) W-SW 247 4,0 C 3,0 C 11,9 km/h (2 Bft)
17.09.2013 09:15 4,4 C 96 % 1010,4 hPa 0,0 l/m 5,1 km/h (1 Bft) O 90 3,8 C 3,0 C 8,4 km/h (2 Bft)
17.09.2013 09:20 5,3 C 96 % 1010,4 hPa 0,0 l/m 6,0 km/h (2 Bft) SO 135 4,7 C 3,2 C 8,9 km/h (2 Bft)
17.09.2013 09:25 9,3 C 94 % 1010,4 hPa 0,0 l/m 6,0 km/h (2 Bft) S-SW 202 8,4 C 5,7 C 5,1 km/h (1 Bft)
17.09.2013 09:30 10,1 C 93 % 1010,4 hPa 0,0 l/m 5,6 km/h (1 Bft) W-SW 247 9,0 C 7,3 C 6,4 km/h (2 Bft)
17.09.2013 09:35 10,1 C 90 % 1010,4 hPa 0,0 l/m 5,1 km/h (1 Bft) S 180 8,5 C 8,9 C 6,8 km/h (2 Bft)
17.09.2013 09:40 10,7 C 88 % 1010,5 hPa 0,0 l/m 6,0 km/h (2 Bft) O-NO 67 8,8 C 9,6 C 7,6 km/h (2 Bft)
17.09.2013 09:45 7,7 C 85 % 1010,5 hPa 0,0 l/m 5,6 km/h (1 Bft) S 180 5,3 C 8,8 C 6,3 km/h (2 Bft)
17.09.2013 09:50 6,7 C 85 % 1010,5 hPa 0,0 l/m 6,6 km/h (2 Bft) S-SO 157 4,4 C 6,9 C 12,9 km/h (3 Bft)
17.09.2013 09:55 6,2 C 86 % 1010,5 hPa 0,0 l/m 8,4 km/h (2 Bft) SO 135 4,0 C 3,2 C 4,8 km/h (1 Bft)
17.09.2013 10:00 6,5 C 87 % 1011,0 hPa 0,0 l/m 8,7 km/h (2 Bft) S-SO 157 4,5 C 2,6 C 12,6 km/h (3 Bft)
17.09.2013 10:05 6,0 C 88 % 1011,0 hPa 0,0 l/m 7,2 km/h (2 Bft) S-SW 202 4,2 C 3,8 C 10,1 km/h (2 Bft)
17.09.2013 10:10 5,9 C 89 % 1011,0 hPa 0,0 l/m 7,1 km/h (2 Bft) SW 225 4,2 C 3,7 C 7,4 km/h (2 Bft)
17.09.2013 10:15 6,0 C 89 % 1011,0 hPa 0,0 l/m 6,4 km/h (2 Bft) SW 225 4,3 C 4,4 C 14,8 km/h (3 Bft)
17.09.2013 10:20 6,0 C 89 % 1011,1 hPa 0,7 l/m 6,6 km/h (2 Bft) S 180 4,3 C 4,2 C 4,5 km/h (1 Bft)
17.09.2013 10:25 6,7 C 89 % 1011,1 hPa 0,0 l/m 6,8 km/h (2 Bft) S 180 5,0 C 4,4 C 10,5 km/h (2 Bft)
17.09.2013 10:30 7,3 C 88 % 1011,1 hPa 0,0 l/m 6,4 km/h (2 Bft) S-SW 202 5,4 C 5,6 C 15,0 km/h (3 Bft)
17.09.2013 10:35 6,9 C 87 % 1011,1 hPa 0,0 l/m 7,2 km/h (2 Bft) S 180 4,9 C 5,3 C 7,7 km/h (2 Bft)
17.09.2013 10:40 6,6 C 87 % 1011,7 hPa 0,0 l/m 8,0 km/h (2 Bft) SO 135 4,6 C 3,8 C 10,1 km/h (2 Bft)
17.09.2013 10:45 5,5 C 89 % 1011,7 hPa 0,0 l/m 9,5 km/h (2 Bft) S-SO 157 3,8 C 1,1 C 22,4 km/h (4 Bft)
17.09.2013 10:50 5,0 C 89 % 1011,7 hPa 0,0 l/m 10,9 km/h (2 Bft) SO 135 3,3 C -0,9 C 13,5 km/h (3 Bft)
17.09.2013 10:55 4,8 C 90 % 1011,7 hPa 0,7 l/m 13,0 km/h (3 Bft) S-SO 157 3,3 C -3,6 C 26,7 km/h (4 Bft)
17.09.2013 11:00 4,8 C 90 % 1011,4 hPa 0,0 l/m 11,7 km/h (2 Bft) S 180 3,3 C -2,4 C 15,8 km/h (3 Bft)
17.09.2013 11:05 5,2 C 91 % 1011,4 hPa 0,0 l/m 10,9 km/h (2 Bft) SW 225 3,9 C -1,6 C 9,3 km/h (2 Bft)
17.09.2013 11:10 5,4 C 91 % 1011,4 hPa 0,0 l/m 9,7 km/h (2 Bft) S-SW 202 4,1 C 0,1 C 10,9 km/h (2 Bft)
17.09.2013 11:15 6,7 C 90 % 1011,4 hPa 0,0 l/m 7,1 km/h (2 Bft) S-SO 157 5,2 C 4,0 C 6,4 km/h (2 Bft)
17.09.2013 11:20 6,9 C 90 % 1011,8 hPa 0,0 l/m 5,8 km/h (2 Bft) S 180 5,4 C 5,6 C 0,0 km/h (0 Bft)
17.09.2013 11:25 7,6 C 89 % 1011,8 hPa 0,0 l/m 3,4 km/h (1 Bft) S 180 5,9 C 7,8 C 3,2 km/h (1 Bft)
17.09.2013 11:30 7,6 C 89 % 1011,8 hPa 0,0 l/m 3,2 km/h (1 Bft) O-SO 112 5,9 C 8,1 C 4,3 km/h (1 Bft)
17.09.2013 11:35 7,7 C 89 % 1011,8 hPa 0,0 l/m 4,5 km/h (1 Bft) S 180 6,0 C 8,2 C 13,5 km/h (3 Bft)
17.09.2013 11:40 7,5 C 89 % 1012,0 hPa 0,0 l/m 4,8 km/h (1 Bft) S-SO 157 5,8 C 8,0 C 4,8 km/h (1 Bft)
17.09.2013 11:45 8,0 C 89 % 1012,0 hPa 0,0 l/m 5,1 km/h (1 Bft) S 180 6,3 C 8,3 C 6,8 km/h (2 Bft)
17.09.2013 11:50 8,2 C 88 % 1012,0 hPa 0,0 l/m 4,8 km/h (1 Bft) S-SW 202 6,3 C 8,7 C 4,7 km/h (1 Bft)
17.09.2013 11:55 8,8 C 86 % 1012,0 hPa 0,0 l/m 5,8 km/h (2 Bft) S 180 6,6 C 9,2 C 4,8 km/h (1 Bft)
17.09.2013 12:00 8,8 C 87 % 1011,9 hPa 0,0 l/m 5,5 km/h (1 Bft) S 180 6,8 C 9,6 C 7,4 km/h (2 Bft)
17.09.2013 12:05 8,3 C 83 % 1011,9 hPa 0,0 l/m 6,4 km/h (2 Bft) S-SO 157 5,6 C 9,4 C 16,1 km/h (3 Bft)
17.09.2013 12:10 8,3 C 82 % 1011,9 hPa 0,0 l/m 8,2 km/h (2 Bft) S-SO 157 5,4 C 7,8 C 16,6 km/h (3 Bft)
17.09.2013 12:15 9,0 C 82 % 1011,9 hPa 0,0 l/m 8,0 km/h (2 Bft) S-SW 202 6,1 C 8,1 C 10,8 km/h (2 Bft)
17.09.2013 12:20 9,0 C 79 % 1012,0 hPa 0,0 l/m 9,7 km/h (2 Bft) S 180 5,6 C 7,1 C 18,8 km/h (3 Bft)
17.09.2013 12:25 8,1 C 79 % 1012,0 hPa 0,0 l/m 10,6 km/h (2 Bft) S 180 4,7 C 5,9 C 23,3 km/h (4 Bft)
17.09.2013 12:30 6,1 C 79 % 1012,0 hPa 0,0 l/m 12,7 km/h (3 Bft) N-NW 337 2,7 C 1,7 C 15,9 km/h (3 Bft)
17.09.2013 12:35 6,4 C 80 % 1012,0 hPa 0,0 l/m 14,2 km/h (3 Bft) W-SW 247 3,2 C -2,2 C 29,6 km/h (5 Bft)
17.09.2013 12:40 6,5 C 80 % 1012,1 hPa 0,0 l/m 11,7 km/h (2 Bft) W 270 3,3 C 0,5 C 13,4 km/h (3 Bft)
17.09.2013 12:45 7,8 C 81 % 1012,1 hPa 0,0 l/m 9,3 km/h (2 Bft) SO 135 4,7 C 4,6 C 11,7 km/h (2 Bft)
17.09.2013 12:50 8,4 C 80 % 1012,1 hPa 0,0 l/m 8,9 km/h (2 Bft) S 180 5,2 C 6,6 C 9,7 km/h (2 Bft)
17.09.2013 12:55 8,1 C 80 % 1012,1 hPa 0,0 l/m 8,5 km/h (2 Bft) S 180 4,9 C 8,0 C 9,2 km/h (2 Bft)
17.09.2013 13:00 8,2 C 80 % 1012,1 hPa 0,0 l/m 7,7 km/h (2 Bft) S 180 5,0 C 8,6 C 13,2 km/h (3 Bft)
17.09.2013 13:05 8,1 C 79 % 1012,1 hPa 0,0 l/m 7,9 km/h (2 Bft) S 180 4,7 C 8,2 C 17,1 km/h (3 Bft)
17.09.2013 13:10 8,3 C 79 % 1012,1 hPa 0,0 l/m 9,3 km/h (2 Bft) S 180 4,9 C 6,2 C 12,1 km/h (2 Bft)
17.09.2013 13:15 9,0 C 80 % 1012,1 hPa 0,0 l/m 9,8 km/h (2 Bft) S-SO 157 5,7 C 6,3 C 8,5 km/h (2 Bft)
17.09.2013 13:20 9,4 C 80 % 1012,2 hPa 0,0 l/m 8,0 km/h (2 Bft) O 90 6,1 C 9,1 C 13,2 km/h (3 Bft)
17.09.2013 13:25 9,2 C 77 % 1012,2 hPa 0,0 l/m 8,9 km/h (2 Bft) S-SO 157 5,4 C 8,2 C 10,5 km/h (2 Bft)
17.09.2013 13:30 8,7 C 78 % 1012,2 hPa 0,0 l/m 10,8 km/h (2 Bft) S 180 5,1 C 6,2 C 19,8 km/h (3 Bft)
17.09.2013 13:35 8,4 C 79 % 1012,2 hPa 0,0 l/m 11,4 km/h (2 Bft) W-SW 247 5,0 C 4,0 C 17,5 km/h (3 Bft)
17.09.2013 13:40 8,3 C 79 % 1012,6 hPa 0,0 l/m 10,5 km/h (2 Bft) S 180 4,9 C 4,0 C 6,4 km/h (2 Bft)
17.09.2013 13:45 9,2 C 80 % 1012,6 hPa 0,0 l/m 8,4 km/h (2 Bft) NO 45 5,9 C 5,8 C 5,1 km/h (1 Bft)
17.09.2013 13:50 9,7 C 81 % 1012,6 hPa 0,0 l/m 6,6 km/h (2 Bft) S-SW 202 6,6 C 9,3 C 9,0 km/h (2 Bft)
17.09.2013 13:55 10,5 C 78 % 1012,6 hPa 0,0 l/m 5,8 km/h (2 Bft) S 180 6,8 C 11,1 C 12,2 km/h (2 Bft)
17.09.2013 14:00 10,5 C 75 % 1012,8 hPa 0,0 l/m 7,1 km/h (2 Bft) S 180 6,3 C 11,0 C 9,0 km/h (2 Bft)
17.09.2013 14:05 10,3 C 77 % 1012,8 hPa 0,0 l/m 7,6 km/h (2 Bft) S 180 6,4 C 10,4 C 8,9 km/h (2 Bft)
17.09.2013 14:10 10,7 C 74 % 1012,8 hPa 0,0 l/m 8,9 km/h (2 Bft) S 180 6,3 C 9,6 C 11,9 km/h (2 Bft)
17.09.2013 14:15 9,5 C 71 % 1012,8 hPa 0,0 l/m 10,8 km/h (2 Bft) S 180 4,5 C 7,6 C 13,7 km/h (3 Bft)
17.09.2013 14:20 9,5 C 72 % 1012,7 hPa 0,0 l/m 10,1 km/h (2 Bft) W 270 4,7 C 7,1 C 8,4 km/h (2 Bft)
17.09.2013 14:25 9,2 C 75 % 1012,7 hPa 0,0 l/m 8,9 km/h (2 Bft) S 180 5,0 C 7,1 C 3,4 km/h (1 Bft)
17.09.2013 14:30 9,8 C 76 % 1012,7 hPa 0,0 l/m 6,9 km/h (2 Bft) S-SW 202 5,8 C 9,7 C 3,9 km/h (1 Bft)
17.09.2013 14:35 9,6 C 72 % 1012,7 hPa 0,0 l/m 5,5 km/h (1 Bft) S 180 4,8 C 11,1 C 5,6 km/h (1 Bft)
17.09.2013 14:40 9,4 C 72 % 1012,2 hPa 0,0 l/m 6,6 km/h (2 Bft) S-SO 157 4,6 C 10,2 C 6,3 km/h (2 Bft)
17.09.2013 14:45 9,5 C 76 % 1012,2 hPa 0,0 l/m 6,8 km/h (2 Bft) S 180 5,5 C 9,6 C 4,8 km/h (1 Bft)
17.09.2013 14:50 9,1 C 75 % 1012,2 hPa 0,0 l/m 6,0 km/h (2 Bft) S-SO 157 4,9 C 9,8 C 8,4 km/h (2 Bft)
17.09.2013 14:55 8,6 C 73 % 1012,2 hPa 0,0 l/m 7,7 km/h (2 Bft) S 180 4,0 C 7,7 C 12,7 km/h (3 Bft)
17.09.2013 15:00 8,6 C 74 % 1011,8 hPa 0,0 l/m 8,9 km/h (2 Bft) S-SO 157 4,2 C 6,1 C 8,2 km/h (2 Bft)
17.09.2013 15:05 8,9 C 71 % 1011,8 hPa 0,0 l/m 9,8 km/h (2 Bft) S 180 3,9 C 5,6 C 11,3 km/h (2 Bft)
17.09.2013 15:10 9,1 C 71 % 1011,8 hPa 0,0 l/m 10,8 km/h (2 Bft) S-SW 202 4,1 C 5,1 C 12,9 km/h (3 Bft)
17.09.2013 15:15 9,3 C 69 % 1011,8 hPa 0,0 l/m 9,7 km/h (2 Bft) S-SO 157 3,9 C 7,1 C 10,5 km/h (2 Bft)
17.09.2013 15:20 9,2 C 69 % 1012,2 hPa 0,0 l/m 8,7 km/h (2 Bft) S 180 3,8 C 8,3 C 7,1 km/h (2 Bft)
17.09.2013 15:25 8,8 C 72 % 1012,2 hPa 0,0 l/m 7,7 km/h (2 Bft) N-NW 337 4,0 C 10,6 C 9,5 km/h (2 Bft)
17.09.2013 15:30 8,7 C 74 % 1012,2 hPa 0,0 l/m 7,6 km/h (2 Bft) S 180 4,3 C 11,5 C 10,0 km/h (2 Bft)
17.09.2013 15:35 8,9 C 76 % 1012,2 hPa 0,0 l/m 7,7 km/h (2 Bft) S 180 4,9 C 11,9 C 3,9 km/h (1 Bft)
17.09.2013 15:40 9,0 C 76 % 1012,2 hPa 0,0 l/m 8,0 km/h (2 Bft) S 180 5,0 C 12,3 C 16,9 km/h (3 Bft)
17.09.2013 15:45 9,1 C 71 % 1012,2 hPa 0,0 l/m 8,7 km/h (2 Bft) S 180 4,1 C 11,3 C 22,0 km/h (4 Bft)
17.09.2013 15:50 9,2 C 70 % 1012,2 hPa 0,0 l/m 9,8 km/h (2 Bft) SO 135 4,0 C 8,9 C 7,9 km/h (2 Bft)
17.09.2013 15:55 8,3 C 69 % 1012,2 hPa 0,0 l/m 12,4 km/h (3 Bft) SW 225 3,0 C 4,5 C 32,5 km/h (5 Bft)
17.09.2013 16:00 7,9 C 72 % 1012,1 hPa 0,0 l/m 13,0 km/h (3 Bft) S 180 3,2 C 1,7 C 16,3 km/h (3 Bft)
17.09.2013 16:05 7,1 C 81 % 1012,1 hPa 0,0 l/m 11,9 km/h (2 Bft) S-SO 157 4,1 C 0,7 C 9,3 km/h (2 Bft)
17.09.2013 16:10 7,4 C 84 % 1012,1 hPa 0,0 l/m 9,0 km/h (2 Bft) S 180 4,9 C 3,3 C 9,5 km/h (2 Bft)
17.09.2013 16:15 7,9 C 85 % 1012,1 hPa 0,0 l/m 5,1 km/h (1 Bft) O-SO 112 5,5 C 7,3 C 7,4 km/h (2 Bft)
17.09.2013 16:20 8,3 C 85 % 1011,8 hPa 0,0 l/m 4,7 km/h (1 Bft) S-SW 202 5,9 C 9,7 C 2,7 km/h (1 Bft)
17.09.2013 16:25 8,4 C 82 % 1011,8 hPa 0,0 l/m 4,8 km/h (1 Bft) S 180 5,5 C 11,7 C 3,7 km/h (1 Bft)
17.09.2013 16:30 8,2 C 81 % 1011,8 hPa 0,0 l/m 5,5 km/h (1 Bft) S 180 5,1 C 11,4 C 7,9 km/h (2 Bft)
17.09.2013 16:35 9,1 C 83 % 1011,8 hPa 0,0 l/m 5,0 km/h (1 Bft) S 180 6,4 C 12,6 C 14,2 km/h (3 Bft)
17.09.2013 16:40 8,9 C 82 % 1011,7 hPa 0,0 l/m 5,0 km/h (1 Bft) S 180 6,0 C 13,0 C 10,0 km/h (2 Bft)
17.09.2013 16:45 8,2 C 81 % 1011,7 hPa 0,0 l/m 6,1 km/h (2 Bft) S 180 5,1 C 11,0 C 13,4 km/h (3 Bft)
17.09.2013 16:50 8,4 C 83 % 1011,7 hPa 0,0 l/m 6,4 km/h (2 Bft) S 180 5,7 C 10,1 C 4,3 km/h (1 Bft)
17.09.2013 16:55 8,5 C 84 % 1011,7 hPa 0,0 l/m 6,0 km/h (2 Bft) O-SO 112 6,0 C 9,7 C 7,7 km/h (2 Bft)
17.09.2013 17:00 8,5 C 84 % 1011,2 hPa 0,0 l/m 4,5 km/h (1 Bft) S 180 6,0 C 10,0 C 3,5 km/h (1 Bft)
17.09.2013 17:05 9,0 C 84 % 1011,2 hPa 0,0 l/m 3,9 km/h (1 Bft) SW 225 6,4 C 10,8 C 3,5 km/h (1 Bft)
17.09.2013 17:10 8,7 C 84 % 1011,2 hPa 0,0 l/m 3,4 km/h (1 Bft) O 90 6,2 C 10,9 C 0,0 km/h (0 Bft)
17.09.2013 17:15 8,0 C 85 % 1011,2 hPa 0,0 l/m 2,6 km/h (1 Bft) W-NW 292 5,6 C 10,8 C 0,0 km/h (0 Bft)
17.09.2013 17:20 7,7 C 85 % 1011,1 hPa 0,0 l/m 2,3 km/h (1 Bft) S 180 5,3 C 10,1 C 0,0 km/h (0 Bft)
17.09.2013 17:25 7,4 C 87 % 1011,1 hPa 0,0 l/m 1,1 km/h (1 Bft) S-SO 157 5,4 C 9,3 C 1,9 km/h (1 Bft)
17.09.2013 17:30 7,3 C 87 % 1011,1 hPa 0,0 l/m 0,8 km/h (0 Bft) O-NO 67 5,3 C 9,2 C 2,4 km/h (1 Bft)
17.09.2013 17:35 7,7 C 87 % 1011,1 hPa 0,0 l/m 1,0 km/h (0 Bft) NO 45 5,7 C 9,3 C 0,0 km/h (0 Bft)
17.09.2013 17:40 7,8 C 87 % 1010,8 hPa 0,0 l/m 0,6 km/h (0 Bft) SO 135 5,8 C 10,9 C 1,6 km/h (1 Bft)
17.09.2013 17:45 7,6 C 88 % 1010,8 hPa 0,0 l/m 0,5 km/h (0 Bft) O-NO 67 5,7 C 12,9 C 0,0 km/h (0 Bft)
17.09.2013 17:50 7,4 C 88 % 1010,8 hPa 0,0 l/m 0,5 km/h (0 Bft) W-SW 247 5,5 C 13,1 C 0,0 km/h (0 Bft)
17.09.2013 17:55 7,4 C 88 % 1010,8 hPa 0,0 l/m 1,1 km/h (1 Bft) O-NO 67 5,5 C 11,3 C 1,8 km/h (1 Bft)
17.09.2013 18:00 7,4 C 89 % 1010,8 hPa 0,0 l/m 1,0 km/h (0 Bft) O-SO 112 5,7 C 10,3 C 0,0 km/h (0 Bft)
17.09.2013 18:05 7,5 C 89 % 1010,8 hPa 0,0 l/m 0,3 km/h (0 Bft) O 90 5,8 C 9,3 C 0,0 km/h (0 Bft)
17.09.2013 18:10 7,5 C 89 % 1010,8 hPa 0,0 l/m 1,0 km/h (0 Bft) W 270 5,8 C 8,9 C 6,4 km/h (2 Bft)
17.09.2013 18:15 7,1 C 88 % 1010,8 hPa 0,0 l/m 6,0 km/h (2 Bft) S-SW 202 5,2 C 6,9 C 12,1 km/h (2 Bft)
17.09.2013 18:20 7,0 C 88 % 1010,6 hPa 0,0 l/m 7,4 km/h (2 Bft) S 180 5,2 C 5,4 C 6,6 km/h (2 Bft)
17.09.2013 18:25 7,1 C 89 % 1010,6 hPa 0,0 l/m 4,8 km/h (1 Bft) W-SW 247 5,4 C 7,6 C 0,0 km/h (0 Bft)
17.09.2013 18:30 7,2 C 90 % 1010,6 hPa 0,0 l/m 3,7 km/h (1 Bft) O 90 5,7 C 8,7 C 3,2 km/h (1 Bft)
17.09.2013 18:35 7,2 C 90 % 1010,6 hPa 0,0 l/m 2,3 km/h (1 Bft) O 90 5,7 C 8,8 C 2,6 km/h (1 Bft)
17.09.2013 18:40 7,1 C 90 % 1010,6 hPa 0,0 l/m 1,8 km/h (1 Bft) O 90 5,6 C 8,6 C 0,0 km/h (0 Bft)
17.09.2013 18:45 6,8 C 90 % 1010,6 hPa 0,0 l/m 1,1 km/h (1 Bft) S-SO 157 5,3 C 8,0 C 4,2 km/h (1 Bft)
17.09.2013 18:50 6,8 C 91 % 1010,6 hPa 0,0 l/m 1,0 km/h (0 Bft) S-SO 157 5,4 C 7,8 C 0,0 km/h (0 Bft)
17.09.2013 18:55 7,0 C 91 % 1010,6 hPa 0,0 l/m 0,8 km/h (0 Bft) S-SO 157 5,6 C 7,8 C 1,8 km/h (1 Bft)
17.09.2013 19:00 7,0 C 91 % 1010,6 hPa 0,0 l/m 0,8 km/h (0 Bft) O-SO 112 5,6 C 7,8 C 1,8 km/h (1 Bft)
17.09.2013 19:05 7,0 C 91 % 1010,6 hPa 0,0 l/m 0,6 km/h (0 Bft) S 180 5,6 C 7,8 C 0,0 km/h (0 Bft)
17.09.2013 19:10 7,0 C 92 % 1010,6 hPa 0,0 l/m 0,3 km/h (0 Bft) S-SW 202 5,8 C 7,7 C 0,0 km/h (0 Bft)
17.09.2013 19:15 7,0 C 92 % 1010,6 hPa 0,0 l/m 0,0 km/h (0 Bft) O 90 5,8 C 7,6 C 0,0 km/h (0 Bft)
17.09.2013 19:20 7,0 C 92 % 1010,6 hPa 0,0 l/m 0,6 km/h (0 Bft) W-SW 247 5,8 C 7,5 C 3,9 km/h (1 Bft)
17.09.2013 19:25 6,9 C 90 % 1010,6 hPa 0,0 l/m 4,5 km/h (1 Bft) S 180 5,4 C 6,9 C 6,0 km/h (2 Bft)
17.09.2013 19:30 6,7 C 90 % 1010,6 hPa 0,0 l/m 5,3 km/h (1 Bft) O-SO 112 5,2 C 6,6 C 2,4 km/h (1 Bft)
17.09.2013 19:35 6,4 C 90 % 1010,6 hPa 0,0 l/m 3,2 km/h (1 Bft) S-SO 157 4,9 C 6,9 C 3,4 km/h (1 Bft)
17.09.2013 19:40 6,2 C 90 % 1010,6 hPa 0,0 l/m 2,4 km/h (1 Bft) S 180 4,7 C 6,7 C 7,4 km/h (2 Bft)
17.09.2013 19:45 6,0 C 90 % 1010,6 hPa 0,0 l/m 3,2 km/h (1 Bft) W-SW 247 4,5 C 6,4 C 2,1 km/h (1 Bft)
17.09.2013 19:50 6,1 C 90 % 1010,6 hPa 0,0 l/m 3,9 km/h (1 Bft) NW 315 4,6 C 6,2 C 5,1 km/h (1 Bft)
17.09.2013 19:55 6,3 C 90 % 1010,6 hPa 0,0 l/m 2,6 km/h (1 Bft) O-SO 112 4,8 C 6,7 C 2,6 km/h (1 Bft)
17.09.2013 20:00 6,3 C 90 % 1010,8 hPa 0,0 l/m 2,1 km/h (1 Bft) S 180 4,8 C 6,7 C 0,0 km/h (0 Bft)
17.09.2013 20:05 6,1 C 90 % 1010,8 hPa 0,0 l/m 1,1 km/h (1 Bft) W-SW 247 4,6 C 6,6 C 0,0 km/h (0 Bft)
17.09.2013 20:10 6,0 C 90 % 1010,8 hPa 0,0 l/m 0,6 km/h (0 Bft) NO 45 4,5 C 6,4 C 0,0 km/h (0 Bft)
17.09.2013 20:15 5,6 C 92 % 1010,8 hPa 0,0 l/m 0,6 km/h (0 Bft) S-SW 202 4,4 C 6,0 C 2,9 km/h (1 Bft)
17.09.2013 20:20 5,5 C 92 % 1010,8 hPa 0,0 l/m 0,6 km/h (0 Bft) N 360 4,3 C 6,0 C 0,0 km/h (0 Bft)
17.09.2013 20:25 5,8 C 92 % 1010,8 hPa 0,0 l/m 0,8 km/h (0 Bft) O-SO 112 4,6 C 6,0 C 0,0 km/h (0 Bft)
17.09.2013 20:30 5,9 C 92 % 1010,8 hPa 0,0 l/m 0,5 km/h (0 Bft) NO 45 4,7 C 6,0 C 0,0 km/h (0 Bft)
17.09.2013 20:35 5,8 C 92 % 1010,8 hPa 0,0 l/m 0,5 km/h (0 Bft) NO 45 4,6 C 6,0 C 1,8 km/h (1 Bft)
17.09.2013 20:40 5,7 C 92 % 1011,1 hPa 0,0 l/m 1,4 km/h (1 Bft) S 180 4,5 C 5,8 C 6,0 km/h (2 Bft)
17.09.2013 20:45 5,5 C 92 % 1011,1 hPa 0,0 l/m 2,3 km/h (1 Bft) O-NO 67 4,3 C 5,7 C 1,6 km/h (1 Bft)
17.09.2013 20:50 5,4 C 92 % 1011,1 hPa 0,0 l/m 1,8 km/h (1 Bft) O-NO 67 4,2 C 5,5 C 0,0 km/h (0 Bft)
17.09.2013 20:55 5,1 C 92 % 1011,1 hPa 0,0 l/m 0,5 km/h (0 Bft) S 180 3,9 C 5,3 C 0,0 km/h (0 Bft)
17.09.2013 21:00 5,0 C 92 % 1010,9 hPa 0,0 l/m 0,6 km/h (0 Bft) NO 45 3,8 C 5,2 C 3,2 km/h (1 Bft)
17.09.2013 21:05 5,2 C 92 % 1010,9 hPa 0,0 l/m 1,3 km/h (1 Bft) S 180 4,0 C 5,4 C 0,0 km/h (0 Bft)
17.09.2013 21:10 5,3 C 92 % 1010,9 hPa 0,0 l/m 1,9 km/h (1 Bft) O-SO 112 4,1 C 5,4 C 4,3 km/h (1 Bft)
17.09.2013 21:15 5,4 C 92 % 1010,9 hPa 0,0 l/m 1,1 km/h (1 Bft) W-SW 247 4,2 C 5,5 C 2,9 km/h (1 Bft)
17.09.2013 21:20 5,4 C 92 % 1010,3 hPa 0,0 l/m 1,3 km/h (1 Bft) S 180 4,2 C 5,7 C 2,3 km/h (1 Bft)
17.09.2013 21:25 5,4 C 92 % 1010,3 hPa 0,0 l/m 1,0 km/h (0 Bft) SO 135 4,2 C 5,8 C 0,0 km/h (0 Bft)
17.09.2013 21:30 5,5 C 93 % 1010,3 hPa 0,0 l/m 1,3 km/h (1 Bft) O-NO 67 4,5 C 5,8 C 2,1 km/h (1 Bft)
17.09.2013 21:35 5,5 C 93 % 1010,3 hPa 0,0 l/m 1,1 km/h (1 Bft) O 90 4,5 C 5,9 C 0,0 km/h (0 Bft)
17.09.2013 21:40 5,5 C 93 % 1010,6 hPa 0,0 l/m 1,0 km/h (0 Bft) W 270 4,5 C 5,8 C 3,5 km/h (1 Bft)
17.09.2013 21:45 5,4 C 93 % 1010,6 hPa 0,0 l/m 1,0 km/h (0 Bft) O 90 4,4 C 5,8 C 0,0 km/h (0 Bft)
17.09.2013 21:50 5,5 C 93 % 1010,6 hPa 0,0 l/m 0,8 km/h (0 Bft) N 360 4,5 C 5,8 C 0,0 km/h (0 Bft)
17.09.2013 21:55 5,7 C 93 % 1010,6 hPa 0,0 l/m 0,3 km/h (0 Bft) NO 45 4,7 C 5,9 C 2,1 km/h (1 Bft)
17.09.2013 22:00 5,8 C 93 % 1010,1 hPa 0,0 l/m 0,3 km/h (0 Bft) SW 225 4,8 C 6,0 C 4,3 km/h (1 Bft)
17.09.2013 22:05 6,0 C 91 % 1010,1 hPa 0,0 l/m 0,6 km/h (0 Bft) NO 45 4,6 C 6,3 C 0,0 km/h (0 Bft)
17.09.2013 22:10 6,0 C 91 % 1010,1 hPa 0,0 l/m 0,8 km/h (0 Bft) NO 45 4,6 C 6,3 C 0,0 km/h (0 Bft)
17.09.2013 22:15 6,0 C 91 % 1010,1 hPa 0,0 l/m 0,5 km/h (0 Bft) O 90 4,6 C 6,1 C 0,0 km/h (0 Bft)
17.09.2013 22:20 5,9 C 92 % 1009,9 hPa 0,0 l/m 0,5 km/h (0 Bft) O 90 4,7 C 6,1 C 0,0 km/h (0 Bft)
17.09.2013 22:25 6,0 C 91 % 1009,9 hPa 0,0 l/m 0,6 km/h (0 Bft) NO 45 4,6 C 6,2 C 0,0 km/h (0 Bft)
17.09.2013 22:30 6,0 C 92 % 1009,9 hPa 0,0 l/m 0,5 km/h (0 Bft) O 90 4,8 C 6,2 C 2,3 km/h (1 Bft)
17.09.2013 22:35 6,1 C 92 % 1009,9 hPa 0,0 l/m 0,3 km/h (0 Bft) O 90 4,9 C 6,4 C 1,6 km/h (1 Bft)
17.09.2013 22:40 6,2 C 92 % 1009,3 hPa 0,0 l/m 0,5 km/h (0 Bft) N-NO 22 5,0 C 6,4 C 2,9 km/h (1 Bft)
17.09.2013 22:45 6,3 C 90 % 1009,3 hPa 0,0 l/m 1,6 km/h (1 Bft) S-SO 157 4,8 C 6,5 C 3,1 km/h (1 Bft)
17.09.2013 22:50 6,2 C 90 % 1009,3 hPa 0,0 l/m 1,8 km/h (1 Bft) W-SW 247 4,7 C 6,7 C 2,1 km/h (1 Bft)
17.09.2013 22:55 6,3 C 90 % 1009,3 hPa 0,0 l/m 1,1 km/h (1 Bft) N 360 4,8 C 6,7 C 1,8 km/h (1 Bft)
17.09.2013 23:00 6,3 C 90 % 1009,3 hPa 0,0 l/m 1,6 km/h (1 Bft) N 360 4,8 C 6,7 C 3,7 km/h (1 Bft)
17.09.2013 23:05 6,5 C 90 % 1009,3 hPa 0,0 l/m 1,9 km/h (1 Bft) O-SO 112 5,0 C 6,9 C 2,1 km/h (1 Bft)
17.09.2013 23:10 6,5 C 89 % 1009,3 hPa 0,0 l/m 1,9 km/h (1 Bft) N 360 4,8 C 7,0 C 0,0 km/h (0 Bft)
17.09.2013 23:15 6,6 C 88 % 1009,3 hPa 0,0 l/m 2,1 km/h (1 Bft) O 90 4,8 C 7,0 C 4,2 km/h (1 Bft)
17.09.2013 23:20 6,6 C 88 % 1009,2 hPa 0,0 l/m 1,6 km/h (1 Bft) N-NO 22 4,8 C 7,0 C 3,9 km/h (1 Bft)
17.09.2013 23:25 6,8 C 87 % 1009,2 hPa 0,0 l/m 1,4 km/h (1 Bft) O-NO 67 4,8 C 7,1 C 0,0 km/h (0 Bft)
17.09.2013 23:30 6,9 C 88 % 1009,2 hPa 0,0 l/m 1,6 km/h (1 Bft) NO 45 5,1 C 7,1 C 3,4 km/h (1 Bft)
17.09.2013 23:35 6,9 C 87 % 1009,2 hPa 0,0 l/m 1,4 km/h (1 Bft) O-NO 67 4,9 C 7,2 C 3,4 km/h (1 Bft)
17.09.2013 23:40 6,8 C 87 % 1009,2 hPa 0,0 l/m 1,4 km/h (1 Bft) O-NO 67 4,8 C 7,1 C 2,3 km/h (1 Bft)
17.09.2013 23:45 6,8 C 88 % 1009,2 hPa 0,0 l/m 1,8 km/h (1 Bft) O-NO 67 5,0 C 7,1 C 2,7 km/h (1 Bft)
17.09.2013 23:50 6,8 C 86 % 1009,2 hPa 0,0 l/m 2,1 km/h (1 Bft) O-NO 67 4,6 C 7,0 C 0,0 km/h (0 Bft)
17.09.2013 23:55 6,8 C 87 % 1009,2 hPa 0,0 l/m 2,1 km/h (1 Bft) O 90 4,8 C 7,0 C 2,9 km/h (1 Bft)
_ Min-Zeit 08:15 15:55 00:15 - 19:15 - - 12:30 10:55 23:50
Minimum _ 3,5 C 69 % 1007,0 hPa - 0,0 km/h (0 Bft) - - 2,7 C -3,6 C 0,0 km/h (0 Bft)
_ Max-Zeit 14:10 09:10 14:15 10:55 12:35 - - 09:30 17:50 15:55
Maximum _ 10,7 C 97 % 1012,8 hPa 0,7 l/m 14,2 km/h
W-SW (3 Bft)
- - 9,0 C 13,1 C 32,5 km/h
SW (5 Bft)
Durchschnitt _ 6,3 C 90 % 1010,2 hPa #13,7 l/m 5,2 km/h (1 Bft) S - 4,7 C 5,5 C 6,9 km/h (2 Bft)